sensor_id;sensor_type;location;lat;lon;timestamp;pressure;altitude;pressure_sealevel;temperature;humidity
63954;BME280;50128;52.094;5.232;2023-04-01T00:01:26;93616.0;;;-22.26;100.0
63954;BME280;50128;52.094;5.232;2023-04-01T00:03:02;93608.0;;;-22.38;100.0
63954;BME280;50128;52.094;5.232;2023-04-01T00:06:16;93600.0;;;-22.47;100.0
63954;BME280;50128;52.094;5.232;2023-04-01T00:07:53;93601.0;;;-22.43;100.0
63954;BME280;50128;52.094;5.232;2023-04-01T00:09:29;93609.0;;;-22.39;100.0
63954;BME280;50128;52.094;5.232;2023-04-01T00:12:41;93606.0;;;-22.46;100.0
63954;BME280;50128;52.094;5.232;2023-04-01T00:14:19;93592.0;;;-22.64;100.0
63954;BME280;50128;52.094;5.232;2023-04-01T00:15:55;93590.0;;;-22.59;100.0
63954;BME280;50128;52.094;5.232;2023-04-01T00:17:32;93595.0;;;-22.6;100.0
63954;BME280;50128;52.094;5.232;2023-04-01T00:20:45;93601.0;;;-22.56;100.0
63954;BME280;50128;52.094;5.232;2023-04-01T00:22:23;93586.0;;;-22.67;100.0
63954;BME280;50128;52.094;5.232;2023-04-01T00:23:59;93577.0;;;-22.79;100.0
63954;BME280;50128;52.094;5.232;2023-04-01T00:27:12;93576.0;;;-22.82;100.0
63954;BME280;50128;52.094;5.232;2023-04-01T00:28:48;93565.0;;;-22.9;100.0
63954;BME280;50128;52.094;5.232;2023-04-01T00:30:25;93555.0;;;-22.98;100.0
63954;BME280;50128;52.094;5.232;2023-04-01T00:33:37;93547.0;;;-23.08;100.0
63954;BME280;50128;52.094;5.232;2023-04-01T00:35:14;93559.0;;;-22.97;100.0
63954;BME280;50128;52.094;5.232;2023-04-01T00:36:52;93555.0;;;-22.89;100.0
63954;BME280;50128;52.094;5.232;2023-04-01T00:38:28;93546.0;;;-22.97;100.0
63954;BME280;50128;52.094;5.232;2023-04-01T00:42:02;93548.0;;;-23.04;100.0
63954;BME280;50128;52.094;5.232;2023-04-01T00:43:39;93507.0;;;-23.26;100.0
63954;BME280;50128;52.094;5.232;2023-04-01T00:45:28;93511.0;;;-23.33;100.0
63954;BME280;50128;52.094;5.232;2023-04-01T00:47:05;93511.0;;;-23.41;100.0
63954;BME280;50128;52.094;5.232;2023-04-01T00:50:22;93500.0;;;-23.52;100.0
63954;BME280;50128;52.094;5.232;2023-04-01T00:52:02;93488.0;;;-23.54;100.0
63954;BME280;50128;52.094;5.232;2023-04-01T00:53:42;93480.0;;;-23.55;100.0
63954;BME280;50128;52.094;5.232;2023-04-01T00:55:21;93487.0;;;-23.43;100.0
63954;BME280;50128;52.094;5.232;2023-04-01T00:58:43;93480.0;;;-23.55;100.0
63954;BME280;50128;52.094;5.232;2023-04-01T01:00:20;93479.0;;;-23.59;100.0
63954;BME280;50128;52.094;5.232;2023-04-01T01:01:56;93464.0;;;-23.71;100.0
63954;BME280;50128;52.094;5.232;2023-04-01T01:03:32;93469.0;;;-23.66;100.0
63954;BME280;50128;52.094;5.232;2023-04-01T01:06:53;93414.0;;;-24.04;100.0
63954;BME280;50128;52.094;5.232;2023-04-01T01:08:50;93421.0;;;-23.97;100.0
63954;BME280;50128;52.094;5.232;2023-04-01T01:10:39;93418.0;;;-24.03;100.0
63954;BME280;50128;52.094;5.232;2023-04-01T01:12:18;93367.0;;;-24.37;100.0
63954;BME280;50128;52.094;5.232;2023-04-01T01:13:58;93371.0;;;-24.37;100.0
63954;BME280;50128;52.094;5.232;2023-04-01T01:17:31;93327.0;;;-24.68;100.0
63954;BME280;50128;52.094;5.232;2023-04-01T01:19:29;93315.0;;;-24.89;100.0
63954;BME280;50128;52.094;5.232;2023-04-01T01:22:00;93299.0;;;-25.0;100.0
63954;BME280;50128;52.094;5.232;2023-04-01T01:23:54;93108.0;;;-26.2;100.0
63954;BME280;50128;52.094;5.232;2023-04-01T01:26:28;93102.0;;;-26.33;100.0
63954;BME280;50128;52.094;5.232;2023-04-01T02:12:01;93600.0;;;-23.5;100.0
63954;BME280;50128;52.094;5.232;2023-04-01T02:13:41;93459.0;;;-24.43;100.0
63954;BME280;50128;52.094;5.232;2023-04-01T02:15:24;93429.0;;;-24.74;100.0
63954;BME280;50128;52.094;5.232;2023-04-01T02:17:06;93369.0;;;-25.07;100.0
63954;BME280;50128;52.094;5.232;2023-04-01T02:20:25;93272.0;;;-25.74;100.0
63954;BME280;50128;52.094;5.232;2023-04-01T02:22:08;93120.0;;;-26.73;100.0
63954;BME280;50128;52.094;5.232;2023-04-01T02:23:46;92861.0;;;-28.31;100.0
63954;BME280;50128;52.094;5.232;2023-04-01T02:25:25;92491.0;;;-30.73;100.0
63954;BME280;50128;52.094;5.232;2023-04-01T03:33:07;94003.0;;;-21.32;100.0
63954;BME280;50128;52.094;5.232;2023-04-01T03:34:43;93985.0;;;-21.39;100.0
63954;BME280;50128;52.094;5.232;2023-04-01T03:36:19;93979.0;;;-21.29;100.0
63954;BME280;50128;52.094;5.232;2023-04-01T03:39:31;93921.0;;;-21.67;100.0
63954;BME280;50128;52.094;5.232;2023-04-01T03:41:11;93917.0;;;-21.69;100.0
63954;BME280;50128;52.094;5.232;2023-04-01T03:42:48;93881.0;;;-21.9;100.0
63954;BME280;50128;52.094;5.232;2023-04-01T03:46:01;93863.0;;;-22.08;100.0
63954;BME280;50128;52.094;5.232;2023-04-01T03:47:37;93867.0;;;-22.02;100.0
63954;BME280;50128;52.094;5.232;2023-04-01T03:49:13;93856.0;;;-22.08;100.0
63954;BME280;50128;52.094;5.232;2023-04-01T03:50:49;93841.0;;;-22.08;100.0
63954;BME280;50128;52.094;5.232;2023-04-01T03:54:01;93827.0;;;-22.2;100.0
63954;BME280;50128;52.094;5.232;2023-04-01T03:55:38;93803.0;;;-22.3;100.0
63954;BME280;50128;52.094;5.232;2023-04-01T03:57:14;93789.0;;;-22.49;100.0
63954;BME280;50128;52.094;5.232;2023-04-01T04:00:27;93788.0;;;-22.47;100.0
63954;BME280;50128;52.094;5.232;2023-04-01T04:02:04;93776.0;;;-22.49;100.0
63954;BME280;50128;52.094;5.232;2023-04-01T04:03:40;93774.0;;;-22.49;100.0
63954;BME280;50128;52.094;5.232;2023-04-01T04:06:52;93782.0;;;-22.47;100.0
63954;BME280;50128;52.094;5.232;2023-04-01T04:08:29;93766.0;;;-22.61;100.0
63954;BME280;50128;52.094;5.232;2023-04-01T04:10:06;93761.0;;;-22.54;100.0
63954;BME280;50128;52.094;5.232;2023-04-01T04:11:42;93771.0;;;-22.48;100.0
63954;BME280;50128;52.094;5.232;2023-04-01T04:14:55;93759.0;;;-22.49;100.0
63954;BME280;50128;52.094;5.232;2023-04-01T04:16:35;93756.0;;;-22.47;100.0
63954;BME280;50128;52.094;5.232;2023-04-01T04:18:11;93742.0;;;-22.58;100.0
63954;BME280;50128;52.094;5.232;2023-04-01T04:21:23;93747.0;;;-22.65;100.0
63954;BME280;50128;52.094;5.232;2023-04-01T04:23:00;93743.0;;;-22.62;100.0
63954;BME280;50128;52.094;5.232;2023-04-01T04:24:36;93735.0;;;-22.76;100.0
63954;BME280;50128;52.094;5.232;2023-04-01T04:27:51;93746.0;;;-22.63;100.0
63954;BME280;50128;52.094;5.232;2023-04-01T04:29:27;93730.0;;;-22.72;100.0
63954;BME280;50128;52.094;5.232;2023-04-01T04:31:03;93752.0;;;-22.74;100.0
63954;BME280;50128;52.094;5.232;2023-04-01T04:32:40;93744.0;;;-22.65;100.0
63954;BME280;50128;52.094;5.232;2023-04-01T04:35:56;93757.0;;;-22.69;100.0
63954;BME280;50128;52.094;5.232;2023-04-01T04:37:31;93757.0;;;-22.78;100.0
63954;BME280;50128;52.094;5.232;2023-04-01T04:39:08;93749.0;;;-22.76;100.0
63954;BME280;50128;52.094;5.232;2023-04-01T04:42:21;93781.0;;;-22.57;100.0
63954;BME280;50128;52.094;5.232;2023-04-01T04:43:57;93771.0;;;-22.68;100.0
63954;BME280;50128;52.094;5.232;2023-04-01T04:45:33;93782.0;;;-22.67;100.0
63954;BME280;50128;52.094;5.232;2023-04-01T04:48:45;93777.0;;;-22.62;100.0
63954;BME280;50128;52.094;5.232;2023-04-01T04:50:22;93783.0;;;-22.65;100.0
63954;BME280;50128;52.094;5.232;2023-04-01T04:51:58;93788.0;;;-22.61;100.0
63954;BME280;50128;52.094;5.232;2023-04-01T04:53:35;93807.0;;;-22.52;100.0
63954;BME280;50128;52.094;5.232;2023-04-01T04:56:48;93797.0;;;-22.57;100.0
63954;BME280;50128;52.094;5.232;2023-04-01T04:58:27;93788.0;;;-22.75;100.0
63954;BME280;50128;52.094;5.232;2023-04-01T05:00:04;93806.0;;;-22.63;100.0
63954;BME280;50128;52.094;5.232;2023-04-01T05:03:17;93804.0;;;-22.72;100.0
63954;BME280;50128;52.094;5.232;2023-04-01T05:04:53;93814.0;;;-22.55;100.0
63954;BME280;50128;52.094;5.232;2023-04-01T05:06:30;93810.0;;;-22.59;100.0
63954;BME280;50128;52.094;5.232;2023-04-01T05:09:41;93814.0;;;-22.55;100.0
63954;BME280;50128;52.094;5.232;2023-04-01T05:11:18;93824.0;;;-22.49;100.0
63954;BME280;50128;52.094;5.232;2023-04-01T05:12:55;93812.0;;;-22.61;100.0
63954;BME280;50128;52.094;5.232;2023-04-01T05:14:30;93820.0;;;-22.45;100.0
63954;BME280;50128;52.094;5.232;2023-04-01T05:17:44;93829.0;;;-22.43;100.0
63954;BME280;50128;52.094;5.232;2023-04-01T05:19:20;93831.0;;;-22.56;100.0
63954;BME280;50128;52.094;5.232;2023-04-01T05:20:56;93836.0;;;-22.43;100.0
63954;BME280;50128;52.094;5.232;2023-04-01T05:24:08;93842.0;;;-22.43;100.0
63954;BME280;50128;52.094;5.232;2023-04-01T05:25:44;93833.0;;;-22.51;100.0
63954;BME280;50128;52.094;5.232;2023-04-01T05:27:20;93842.0;;;-22.45;100.0
63954;BME280;50128;52.094;5.232;2023-04-01T05:30:31;93838.0;;;-22.48;100.0
63954;BME280;50128;52.094;5.232;2023-04-01T05:32:07;93859.0;;;-22.44;100.0
63954;BME280;50128;52.094;5.232;2023-04-01T05:33:43;93862.0;;;-22.31;100.0
63954;BME280;50128;52.094;5.232;2023-04-01T05:36:56;93870.0;;;-22.32;100.0
63954;BME280;50128;52.094;5.232;2023-04-01T05:38:32;93852.0;;;-22.47;100.0
63954;BME280;50128;52.094;5.232;2023-04-01T05:40:09;93857.0;;;-22.46;100.0
63954;BME280;50128;52.094;5.232;2023-04-01T05:41:45;93856.0;;;-22.46;100.0
63954;BME280;50128;52.094;5.232;2023-04-01T05:44:57;93859.0;;;-22.41;100.0
63954;BME280;50128;52.094;5.232;2023-04-01T05:46:33;93888.0;;;-22.2;100.0
63954;BME280;50128;52.094;5.232;2023-04-01T05:48:09;93878.0;;;-22.37;100.0
63954;BME280;50128;52.094;5.232;2023-04-01T05:51:22;93880.0;;;-22.34;100.0
63954;BME280;50128;52.094;5.232;2023-04-01T05:52:59;93888.0;;;-22.36;100.0
63954;BME280;50128;52.094;5.232;2023-04-01T05:54:35;93905.0;;;-22.19;100.0
63954;BME280;50128;52.094;5.232;2023-04-01T05:57:47;93895.0;;;-22.33;100.0
63954;BME280;50128;52.094;5.232;2023-04-01T05:59:23;93881.0;;;-22.42;100.0
63954;BME280;50128;52.094;5.232;2023-04-01T06:01:00;93877.0;;;-22.44;100.0
63954;BME280;50128;52.094;5.232;2023-04-01T06:02:37;93899.0;;;-22.32;100.0
63954;BME280;50128;52.094;5.232;2023-04-01T06:05:52;93886.0;;;-22.42;100.0
63954;BME280;50128;52.094;5.232;2023-04-01T06:07:28;93886.0;;;-22.4;100.0
63954;BME280;50128;52.094;5.232;2023-04-01T06:09:13;93896.0;;;-22.46;100.0
63954;BME280;50128;52.094;5.232;2023-04-01T06:12:47;93907.0;;;-22.48;100.0
63954;BME280;50128;52.094;5.232;2023-04-01T06:14:44;93902.0;;;-22.46;100.0
63954;BME280;50128;52.094;5.232;2023-04-01T06:16:35;93917.0;;;-22.44;100.0
63954;BME280;50128;52.094;5.232;2023-04-01T06:18:59;93899.0;;;-22.54;100.0
63954;BME280;50128;52.094;5.232;2023-04-01T06:21:21;93903.0;;;-22.55;100.0
63954;BME280;50128;52.094;5.232;2023-04-01T06:23:09;93889.0;;;-22.69;100.0
63954;BME280;50128;52.094;5.232;2023-04-01T06:25:27;93890.0;;;-22.73;100.0
63954;BME280;50128;52.094;5.232;2023-04-01T06:27:13;93884.0;;;-22.72;100.0
63954;BME280;50128;52.094;5.232;2023-04-01T06:29:17;93898.0;;;-22.67;100.0
63954;BME280;50128;52.094;5.232;2023-04-01T06:31:12;93904.0;;;-22.66;100.0
63954;BME280;50128;52.094;5.232;2023-04-01T06:33:08;93885.0;;;-22.93;100.0
63954;BME280;50128;52.094;5.232;2023-04-01T06:35:53;93895.0;;;-22.83;100.0
63954;BME280;50128;52.094;5.232;2023-04-01T06:41:18;93899.0;;;-22.97;100.0
63954;BME280;50128;52.094;5.232;2023-04-01T06:44:16;93910.0;;;-22.86;100.0
63954;BME280;50128;52.094;5.232;2023-04-01T06:46:03;93918.0;;;-22.73;100.0
63954;BME280;50128;52.094;5.232;2023-04-01T06:47:55;93923.0;;;-22.85;100.0
63954;BME280;50128;52.094;5.232;2023-04-01T06:49:44;93912.0;;;-22.86;100.0
63954;BME280;50128;52.094;5.232;2023-04-01T06:51:38;93927.0;;;-22.69;100.0
63954;BME280;50128;52.094;5.232;2023-04-01T06:53:26;93913.0;;;-22.84;100.0
63954;BME280;50128;52.094;5.232;2023-04-01T06:55:23;93927.0;;;-22.8;100.0
63954;BME280;50128;52.094;5.232;2023-04-01T06:57:05;93934.0;;;-22.67;100.0
63954;BME280;50128;52.094;5.232;2023-04-01T07:00:40;93912.0;;;-22.82;100.0
63954;BME280;50128;52.094;5.232;2023-04-01T07:02:24;93915.0;;;-22.79;100.0
63954;BME280;50128;52.094;5.232;2023-04-01T07:04:10;93927.0;;;-22.82;100.0
63954;BME280;50128;52.094;5.232;2023-04-01T07:05:49;93920.0;;;-22.74;100.0
63954;BME280;50128;52.094;5.232;2023-04-01T07:09:14;93906.0;;;-22.91;100.0
63954;BME280;50128;52.094;5.232;2023-04-01T07:10:55;93921.0;;;-22.91;100.0
63954;BME280;50128;52.094;5.232;2023-04-01T07:12:40;93921.0;;;-22.93;100.0
63954;BME280;50128;52.094;5.232;2023-04-01T07:14:22;93929.0;;;-22.95;100.0
63954;BME280;50128;52.094;5.232;2023-04-01T07:16:08;93923.0;;;-23.01;100.0
63954;BME280;50128;52.094;5.232;2023-04-01T07:19:35;93925.0;;;-23.03;100.0
63954;BME280;50128;52.094;5.232;2023-04-01T07:21:23;93887.0;;;-23.27;100.0
63954;BME280;50128;52.094;5.232;2023-04-01T07:23:03;93904.0;;;-23.11;100.0
63954;BME280;50128;52.094;5.232;2023-04-01T07:24:44;93902.0;;;-23.2;100.0
63954;BME280;50128;52.094;5.232;2023-04-01T07:26:22;93902.0;;;-23.27;100.0
63954;BME280;50128;52.094;5.232;2023-04-01T07:29:40;93930.0;;;-23.11;100.0
63954;BME280;50128;52.094;5.232;2023-04-01T07:31:25;93918.0;;;-23.17;100.0
63954;BME280;50128;52.094;5.232;2023-04-01T07:33:13;93926.0;;;-23.19;100.0
63954;BME280;50128;52.094;5.232;2023-04-01T07:35:00;93933.0;;;-23.03;100.0
63954;BME280;50128;52.094;5.232;2023-04-01T07:36:53;93916.0;;;-23.16;100.0
63954;BME280;50128;52.094;5.232;2023-04-01T07:40:31;93931.0;;;-23.16;100.0
63954;BME280;50128;52.094;5.232;2023-04-01T07:42:18;93919.0;;;-23.21;100.0
63954;BME280;50128;52.094;5.232;2023-04-01T07:44:08;93912.0;;;-23.19;100.0
63954;BME280;50128;52.094;5.232;2023-04-01T07:46:00;93916.0;;;-23.15;100.0
63954;BME280;50128;52.094;5.232;2023-04-01T07:47:50;93917.0;;;-23.08;100.0
63954;BME280;50128;52.094;5.232;2023-04-01T07:49:38;93907.0;;;-23.1;100.0
63954;BME280;50128;52.094;5.232;2023-04-01T07:53:10;93913.0;;;-23.09;100.0
63954;BME280;50128;52.094;5.232;2023-04-01T07:54:56;93907.0;;;-23.11;100.0
63954;BME280;50128;52.094;5.232;2023-04-01T07:56:42;93924.0;;;-23.01;100.0
63954;BME280;50128;52.094;5.232;2023-04-01T07:58:28;93933.0;;;-22.97;100.0
63954;BME280;50128;52.094;5.232;2023-04-01T08:00:16;93934.0;;;-22.97;100.0
63954;BME280;50128;52.094;5.232;2023-04-01T08:02:00;93934.0;;;-22.88;100.0
63954;BME280;50128;52.094;5.232;2023-04-01T08:05:53;93935.0;;;-23.02;100.0
63954;BME280;50128;52.094;5.232;2023-04-01T08:07:37;93943.0;;;-22.98;100.0
63954;BME280;50128;52.094;5.232;2023-04-01T08:09:22;93944.0;;;-22.99;100.0
63954;BME280;50128;52.094;5.232;2023-04-01T08:11:12;93964.0;;;-22.8;100.0
63954;BME280;50128;52.094;5.232;2023-04-01T08:14:53;93932.0;;;-22.94;100.0
63954;BME280;50128;52.094;5.232;2023-04-01T08:16:35;93901.0;;;-23.02;100.0
63954;BME280;50128;52.094;5.232;2023-04-01T08:20:14;93896.0;;;-23.31;100.0
63954;BME280;50128;52.094;5.232;2023-04-01T08:22:00;93888.0;;;-23.37;100.0
63954;BME280;50128;52.094;5.232;2023-04-01T08:23:41;93896.0;;;-23.4;100.0
63954;BME280;50128;52.094;5.232;2023-04-01T08:25:23;93899.0;;;-23.31;100.0
63954;BME280;50128;52.094;5.232;2023-04-01T08:27:03;93894.0;;;-23.3;100.0
63954;BME280;50128;52.094;5.232;2023-04-01T08:30:36;93901.0;;;-23.25;100.0
63954;BME280;50128;52.094;5.232;2023-04-01T08:32:19;93901.0;;;-23.3;100.0
63954;BME280;50128;52.094;5.232;2023-04-01T08:34:00;93906.0;;;-23.18;100.0
63954;BME280;50128;52.094;5.232;2023-04-01T08:35:44;93915.0;;;-23.15;100.0
63954;BME280;50128;52.094;5.232;2023-04-01T08:37:29;93889.0;;;-23.31;100.0
63954;BME280;50128;52.094;5.232;2023-04-01T08:40:56;93916.0;;;-23.19;100.0
63954;BME280;50128;52.094;5.232;2023-04-01T08:44:58;93920.0;;;-23.22;100.0
63954;BME280;50128;52.094;5.232;2023-04-01T08:51:53;93909.0;;;-23.38;100.0
63954;BME280;50128;52.094;5.232;2023-04-01T08:54:21;93908.0;;;-23.44;100.0
63954;BME280;50128;52.094;5.232;2023-04-01T08:57:35;93902.0;;;-23.43;100.0
63954;BME280;50128;52.094;5.232;2023-04-01T08:59:29;93893.0;;;-23.49;100.0
63954;BME280;50128;52.094;5.232;2023-04-01T09:01:38;93916.0;;;-23.33;100.0
63954;BME280;50128;52.094;5.232;2023-04-01T09:04:47;93926.0;;;-23.25;100.0
63954;BME280;50128;52.094;5.232;2023-04-01T09:08:33;93921.0;;;-23.17;100.0
63954;BME280;50128;52.094;5.232;2023-04-01T09:13:13;93892.0;;;-23.55;100.0
63954;BME280;50128;52.094;5.232;2023-04-01T09:15:36;93899.0;;;-23.65;100.0
63954;BME280;50128;52.094;5.232;2023-04-01T09:18:59;93893.0;;;-23.59;100.0
63954;BME280;50128;52.094;5.232;2023-04-01T09:22:05;93903.0;;;-23.52;100.0
63954;BME280;50128;52.094;5.232;2023-04-01T09:23:56;93893.0;;;-23.43;100.0
63954;BME280;50128;52.094;5.232;2023-04-01T09:26:21;93900.0;;;-23.64;100.0
63954;BME280;50128;52.094;5.232;2023-04-01T09:28:09;93950.0;;;-23.33;100.0
63954;BME280;50128;52.094;5.232;2023-04-01T09:30:32;93926.0;;;-23.55;100.0
63954;BME280;50128;52.094;5.232;2023-04-01T09:36:04;93925.0;;;-23.48;100.0
63954;BME280;50128;52.094;5.232;2023-04-01T09:37:52;93932.0;;;-23.58;100.0
63954;BME280;50128;52.094;5.232;2023-04-01T09:39:37;93929.0;;;-23.59;100.0
63954;BME280;50128;52.094;5.232;2023-04-01T09:41:27;93939.0;;;-23.52;100.0
63954;BME280;50128;52.094;5.232;2023-04-01T09:43:20;93944.0;;;-23.51;100.0
63954;BME280;50128;52.094;5.232;2023-04-01T09:45:08;93909.0;;;-23.72;100.0
63954;BME280;50128;52.094;5.232;2023-04-01T09:47:01;93895.0;;;-23.74;100.0
63954;BME280;50128;52.094;5.232;2023-04-01T09:48:59;93907.0;;;-23.64;100.0
63954;BME280;50128;52.094;5.232;2023-04-01T09:52:24;93886.0;;;-23.78;100.0
63954;BME280;50128;52.094;5.232;2023-04-01T09:54:16;93899.0;;;-23.67;100.0
63954;BME280;50128;52.094;5.232;2023-04-01T09:56:52;93893.0;;;-23.6;100.0
63954;BME280;50128;52.094;5.232;2023-04-01T09:59:24;93916.0;;;-23.49;100.0
63954;BME280;50128;52.094;5.232;2023-04-01T10:01:33;93895.0;;;-23.66;100.0
63954;BME280;50128;52.094;5.232;2023-04-01T10:13:36;93853.0;;;-24.0;100.0
63954;BME280;50128;52.094;5.232;2023-04-01T10:16:56;93845.0;;;-24.2;100.0
63954;BME280;50128;52.094;5.232;2023-04-01T10:20:34;93804.0;;;-24.3;100.0
63954;BME280;50128;52.094;5.232;2023-04-01T10:22:50;93802.0;;;-24.21;100.0
63954;BME280;50128;52.094;5.232;2023-04-01T10:27:34;93801.0;;;-24.21;100.0
63954;BME280;50128;52.094;5.232;2023-04-01T10:29:48;93744.0;;;-24.33;100.0
63954;BME280;50128;52.094;5.232;2023-04-01T10:33:03;93712.0;;;-24.51;100.0
63954;BME280;50128;52.094;5.232;2023-04-01T10:36:47;93636.0;;;-24.82;100.0
63954;BME280;50128;52.094;5.232;2023-04-01T10:52:12;93253.0;;;-27.26;100.0
63954;BME280;50128;52.094;5.232;2023-04-01T10:56:11;92757.0;;;-30.29;100.0
63954;BME280;50128;52.094;5.232;2023-04-01T11:35:52;94244.0;;;-20.61;100.0
63954;BME280;50128;52.094;5.232;2023-04-01T11:38:12;94111.0;;;-21.56;100.0
63954;BME280;50128;52.094;5.232;2023-04-01T11:39:59;93957.0;;;-22.47;100.0
63954;BME280;50128;52.094;5.232;2023-04-01T11:41:47;93813.0;;;-23.3;100.0
63954;BME280;50128;52.094;5.232;2023-04-01T11:45:23;93520.0;;;-25.06;100.0
63954;BME280;50128;52.094;5.232;2023-04-01T11:47:26;93753.0;;;-23.61;100.0
63954;BME280;50128;52.094;5.232;2023-04-01T11:49:32;93276.0;;;-26.49;100.0
63954;BME280;50128;52.094;5.232;2023-04-01T11:51:36;92445.0;;;-31.76;100.0
63954;BME280;50128;52.094;5.232;2023-04-01T12:40:26;94280.0;;;-20.83;100.0
63954;BME280;50128;52.094;5.232;2023-04-01T12:43:26;94290.0;;;-20.94;100.0
63954;BME280;50128;52.094;5.232;2023-04-01T12:45:21;94267.0;;;-21.09;100.0
63954;BME280;50128;52.094;5.232;2023-04-01T12:47:44;94259.0;;;-21.0;100.0
63954;BME280;50128;52.094;5.232;2023-04-01T12:51:20;94231.0;;;-21.37;100.0
63954;BME280;50128;52.094;5.232;2023-04-01T12:54:18;94209.0;;;-21.75;100.0
63954;BME280;50128;52.094;5.232;2023-04-01T12:58:06;94206.0;;;-21.89;100.0
63954;BME280;50128;52.094;5.232;2023-04-01T13:02:01;94200.0;;;-22.11;100.0
63954;BME280;50128;52.094;5.232;2023-04-01T13:03:52;94154.0;;;-22.48;100.0
63954;BME280;50128;52.094;5.232;2023-04-01T13:06:02;94151.0;;;-22.44;100.0
63954;BME280;50128;52.094;5.232;2023-04-01T13:09:26;94166.0;;;-22.33;100.0
63954;BME280;50128;52.094;5.232;2023-04-01T13:11:14;94125.0;;;-22.54;100.0
63954;BME280;50128;52.094;5.232;2023-04-01T13:13:08;94121.0;;;-22.48;100.0
63954;BME280;50128;52.094;5.232;2023-04-01T13:15:32;94102.0;;;-22.47;100.0
63954;BME280;50128;52.094;5.232;2023-04-01T13:17:16;94103.0;;;-22.46;100.0
63954;BME280;50128;52.094;5.232;2023-04-01T13:19:02;94071.0;;;-22.61;100.0
63954;BME280;50128;52.094;5.232;2023-04-01T13:20:44;94099.0;;;-22.45;100.0
63954;BME280;50128;52.094;5.232;2023-04-01T13:22:32;94075.0;;;-22.54;100.0
63954;BME280;50128;52.094;5.232;2023-04-01T13:24:30;94090.0;;;-22.37;100.0
63954;BME280;50128;52.094;5.232;2023-04-01T13:26:18;94078.0;;;-22.43;100.0
63954;BME280;50128;52.094;5.232;2023-04-01T13:29:51;94066.0;;;-22.68;100.0
63954;BME280;50128;52.094;5.232;2023-04-01T13:31:57;94023.0;;;-22.89;100.0
63954;BME280;50128;52.094;5.232;2023-04-01T13:33:46;93967.0;;;-23.4;100.0
63954;BME280;50128;52.094;5.232;2023-04-01T13:35:34;93936.0;;;-23.71;100.0
63954;BME280;50128;52.094;5.232;2023-04-01T13:37:24;93923.0;;;-23.77;100.0
63954;BME280;50128;52.094;5.232;2023-04-01T13:39:28;93871.0;;;-24.19;100.0
63954;BME280;50128;52.094;5.232;2023-04-01T13:41:14;93861.0;;;-24.32;100.0
63954;BME280;50128;52.094;5.232;2023-04-01T13:42:59;93859.0;;;-24.47;100.0
63954;BME280;50128;52.094;5.232;2023-04-01T13:46:41;93869.0;;;-24.5;100.0
63954;BME280;50128;52.094;5.232;2023-04-01T13:50:20;93855.0;;;-24.56;100.0
63954;BME280;50128;52.094;5.232;2023-04-01T13:52:29;93856.0;;;-24.64;100.0
63954;BME280;50128;52.094;5.232;2023-04-01T13:56:34;93866.0;;;-24.71;100.0
63954;BME280;50128;52.094;5.232;2023-04-01T13:58:58;93869.0;;;-24.75;100.0
63954;BME280;50128;52.094;5.232;2023-04-01T14:01:09;93899.0;;;-24.71;100.0
63954;BME280;50128;52.094;5.232;2023-04-01T14:02:58;93853.0;;;-24.95;100.0
63954;BME280;50128;52.094;5.232;2023-04-01T14:04:54;93811.0;;;-25.42;100.0
63954;BME280;50128;52.094;5.232;2023-04-01T14:06:52;93829.0;;;-25.21;100.0
63954;BME280;50128;52.094;5.232;2023-04-01T14:08:46;93793.0;;;-25.37;100.0
63954;BME280;50128;52.094;5.232;2023-04-01T14:10:36;93776.0;;;-25.52;100.0
63954;BME280;50128;52.094;5.232;2023-04-01T14:12:26;93707.0;;;-25.92;100.0
63954;BME280;50128;52.094;5.232;2023-04-01T14:16:12;93601.0;;;-26.59;100.0
63954;BME280;50128;52.094;5.232;2023-04-01T14:18:00;93588.0;;;-26.75;100.0
63954;BME280;50128;52.094;5.232;2023-04-01T14:20:00;93565.0;;;-26.96;100.0
63954;BME280;50128;52.094;5.232;2023-04-01T14:21:58;93473.0;;;-27.56;100.0
63954;BME280;50128;52.094;5.232;2023-04-01T14:23:49;93434.0;;;-27.83;100.0
63954;BME280;50128;52.094;5.232;2023-04-01T14:29:18;92836.0;;;-31.88;100.0
63954;BME280;50128;52.094;5.232;2023-04-01T14:31:17;93689.0;;;-26.66;100.0
63954;BME280;50128;52.094;5.232;2023-04-01T14:33:31;93438.0;;;-28.17;100.0
63954;BME280;50128;52.094;5.232;2023-04-01T14:35:30;93315.0;;;-28.89;100.0
63954;BME280;50128;52.094;5.232;2023-04-01T14:37:26;93235.0;;;-29.48;100.0
63954;BME280;50128;52.094;5.232;2023-04-01T14:42:49;92878.0;;;-31.7;100.0
63954;BME280;50128;52.094;5.232;2023-04-01T15:04:47;93910.0;;;-25.75;100.0
63954;BME280;50128;52.094;5.232;2023-04-01T15:08:33;93698.0;;;-26.99;100.0
63954;BME280;50128;52.094;5.232;2023-04-01T15:10:30;93478.0;;;-28.46;100.0
63954;BME280;50128;52.094;5.232;2023-04-01T15:12:19;93439.0;;;-28.82;100.0
63954;BME280;50128;52.094;5.232;2023-04-01T15:14:16;93418.0;;;-29.04;100.0
63954;BME280;50128;52.094;5.232;2023-04-01T15:16:18;93408.0;;;-29.04;100.0
63954;BME280;50128;52.094;5.232;2023-04-01T15:18:07;93199.0;;;-30.26;100.0
63954;BME280;50128;52.094;5.232;2023-04-01T15:19:57;92500.0;;;-34.72;100.0
63954;BME280;50128;52.094;5.232;2023-04-01T15:21:52;92203.0;;;-36.55;100.0
63954;BME280;50128;52.094;5.232;2023-04-01T15:44:45;93857.0;;;-26.71;100.0
63954;BME280;50128;52.094;5.232;2023-04-01T15:46:41;93833.0;;;-26.89;100.0
63954;BME280;50128;52.094;5.232;2023-04-01T15:48:30;93792.0;;;-27.14;100.0
63954;BME280;50128;52.094;5.232;2023-04-01T15:52:37;93722.0;;;-27.69;100.0
63954;BME280;50128;52.094;5.232;2023-04-01T15:54:27;93639.0;;;-28.22;100.0
63954;BME280;50128;52.094;5.232;2023-04-01T15:57:08;93650.0;;;-28.18;100.0
63954;BME280;50128;52.094;5.232;2023-04-01T15:59:01;93495.0;;;-29.19;100.0
63954;BME280;50128;52.094;5.232;2023-04-01T16:02:32;93242.0;;;-30.86;100.0
63954;BME280;50128;52.094;5.232;2023-04-01T16:04:23;92626.0;;;-34.76;100.0
63954;BME280;50128;52.094;5.232;2023-04-01T19:39:37;94616.0;;;-26.74;100.0
63954;BME280;50128;52.094;5.232;2023-04-01T19:41:30;94735.0;;;-25.93;100.0
63954;BME280;50128;52.094;5.232;2023-04-01T19:43:15;94696.0;;;-26.29;100.0
63954;BME280;50128;52.094;5.232;2023-04-01T19:45:06;94664.0;;;-26.53;100.0
63954;BME280;50128;52.094;5.232;2023-04-01T19:46:55;94622.0;;;-26.8;100.0
63954;BME280;50128;52.094;5.232;2023-04-01T19:50:34;94591.0;;;-27.27;100.0
63954;BME280;50128;52.094;5.232;2023-04-01T19:52:18;94513.0;;;-27.79;100.0
63954;BME280;50128;52.094;5.232;2023-04-01T19:54:03;94487.0;;;-27.83;100.0